sensor_id;sensor_type;location;lat;lon;timestamp;temperature;humidity
61201;DHT22;47065;52.898;6.992;2023-04-24T00:00:33;9.90;99.90
61201;DHT22;47065;52.898;6.992;2023-04-24T00:02:58;9.90;99.90
61201;DHT22;47065;52.898;6.992;2023-04-24T00:05:24;9.90;99.90
61201;DHT22;47065;52.898;6.992;2023-04-24T00:07:50;9.90;99.90
61201;DHT22;47065;52.898;6.992;2023-04-24T00:10:19;9.80;99.90
61201;DHT22;47065;52.898;6.992;2023-04-24T00:12:44;9.80;99.90
61201;DHT22;47065;52.898;6.992;2023-04-24T00:15:10;9.80;99.90
61201;DHT22;47065;52.898;6.992;2023-04-24T00:17:36;9.80;99.90
61201;DHT22;47065;52.898;6.992;2023-04-24T00:20:02;9.70;99.90
61201;DHT22;47065;52.898;6.992;2023-04-24T00:22:30;9.70;99.90
61201;DHT22;47065;52.898;6.992;2023-04-24T00:24:56;9.70;99.90
61201;DHT22;47065;52.898;6.992;2023-04-24T00:27:22;9.70;99.90
61201;DHT22;47065;52.898;6.992;2023-04-24T00:29:48;9.70;99.90
61201;DHT22;47065;52.898;6.992;2023-04-24T00:32:14;9.70;99.90
61201;DHT22;47065;52.898;6.992;2023-04-24T00:34:40;9.60;99.90
61201;DHT22;47065;52.898;6.992;2023-04-24T00:37:05;9.60;99.90
61201;DHT22;47065;52.898;6.992;2023-04-24T00:39:31;9.60;99.90
61201;DHT22;47065;52.898;6.992;2023-04-24T00:41:57;9.60;99.90
61201;DHT22;47065;52.898;6.992;2023-04-24T00:44:23;9.60;99.90
61201;DHT22;47065;52.898;6.992;2023-04-24T00:46:49;9.50;99.90
61201;DHT22;47065;52.898;6.992;2023-04-24T00:49:21;9.50;99.90
61201;DHT22;47065;52.898;6.992;2023-04-24T00:51:47;9.50;99.90
61201;DHT22;47065;52.898;6.992;2023-04-24T00:54:14;9.50;99.90
61201;DHT22;47065;52.898;6.992;2023-04-24T00:56:41;9.50;99.90
61201;DHT22;47065;52.898;6.992;2023-04-24T00:59:08;9.50;99.90
61201;DHT22;47065;52.898;6.992;2023-04-24T01:01:34;9.50;99.90
61201;DHT22;47065;52.898;6.992;2023-04-24T01:04:00;9.50;99.90
61201;DHT22;47065;52.898;6.992;2023-04-24T01:06:28;9.40;99.90
61201;DHT22;47065;52.898;6.992;2023-04-24T01:08:57;9.40;99.90
61201;DHT22;47065;52.898;6.992;2023-04-24T01:11:22;9.40;99.90
61201;DHT22;47065;52.898;6.992;2023-04-24T01:13:48;9.40;99.90
61201;DHT22;47065;52.898;6.992;2023-04-24T01:16:14;9.40;99.90
61201;DHT22;47065;52.898;6.992;2023-04-24T01:18:43;9.40;99.90
61201;DHT22;47065;52.898;6.992;2023-04-24T01:21:09;9.30;99.90
61201;DHT22;47065;52.898;6.992;2023-04-24T01:23:35;9.40;99.90
61201;DHT22;47065;52.898;6.992;2023-04-24T01:26:01;9.30;99.90
61201;DHT22;47065;52.898;6.992;2023-04-24T01:28:27;9.30;99.90
61201;DHT22;47065;52.898;6.992;2023-04-24T01:30:53;9.30;99.90
61201;DHT22;47065;52.898;6.992;2023-04-24T01:33:21;9.30;99.90
61201;DHT22;47065;52.898;6.992;2023-04-24T01:35:47;9.30;99.90
61201;DHT22;47065;52.898;6.992;2023-04-24T01:38:13;9.30;99.90
61201;DHT22;47065;52.898;6.992;2023-04-24T01:40:39;9.30;99.90
61201;DHT22;47065;52.898;6.992;2023-04-24T01:43:05;9.30;99.90
61201;DHT22;47065;52.898;6.992;2023-04-24T01:45:31;9.20;99.90
61201;DHT22;47065;52.898;6.992;2023-04-24T01:47:56;9.30;99.90
61201;DHT22;47065;52.898;6.992;2023-04-24T01:50:22;9.30;99.90
61201;DHT22;47065;52.898;6.992;2023-04-24T01:52:48;9.30;99.90
61201;DHT22;47065;52.898;6.992;2023-04-24T01:55:13;9.30;99.90
61201;DHT22;47065;52.898;6.992;2023-04-24T01:57:39;9.30;99.90
61201;DHT22;47065;52.898;6.992;2023-04-24T02:00:06;9.30;99.90
61201;DHT22;47065;52.898;6.992;2023-04-24T02:02:32;9.30;99.90
61201;DHT22;47065;52.898;6.992;2023-04-24T02:04:58;9.30;99.90
61201;DHT22;47065;52.898;6.992;2023-04-24T02:07:23;9.30;99.90
61201;DHT22;47065;52.898;6.992;2023-04-24T02:09:49;9.20;99.90
61201;DHT22;47065;52.898;6.992;2023-04-24T02:12:15;9.20;99.90
61201;DHT22;47065;52.898;6.992;2023-04-24T02:14:43;9.30;99.90
61201;DHT22;47065;52.898;6.992;2023-04-24T02:17:09;9.30;99.90
61201;DHT22;47065;52.898;6.992;2023-04-24T02:19:35;9.30;99.90
61201;DHT22;47065;52.898;6.992;2023-04-24T02:22:00;9.30;99.90
61201;DHT22;47065;52.898;6.992;2023-04-24T02:24:26;9.30;99.90
61201;DHT22;47065;52.898;6.992;2023-04-24T02:26:51;9.30;99.90
61201;DHT22;47065;52.898;6.992;2023-04-24T02:29:17;9.30;99.90
61201;DHT22;47065;52.898;6.992;2023-04-24T02:31:43;9.30;99.90
61201;DHT22;47065;52.898;6.992;2023-04-24T02:34:08;9.30;99.90
61201;DHT22;47065;52.898;6.992;2023-04-24T02:36:34;9.30;99.90
61201;DHT22;47065;52.898;6.992;2023-04-24T02:39:00;9.30;99.90
61201;DHT22;47065;52.898;6.992;2023-04-24T02:41:26;9.30;99.90
61201;DHT22;47065;52.898;6.992;2023-04-24T02:43:57;9.30;99.90
61201;DHT22;47065;52.898;6.992;2023-04-24T02:46:23;9.30;99.90
61201;DHT22;47065;52.898;6.992;2023-04-24T02:48:48;9.30;99.90
61201;DHT22;47065;52.898;6.992;2023-04-24T02:51:14;9.30;99.90
61201;DHT22;47065;52.898;6.992;2023-04-24T02:53:39;9.30;99.90
61201;DHT22;47065;52.898;6.992;2023-04-24T02:56:06;9.30;99.90
61201;DHT22;47065;52.898;6.992;2023-04-24T02:58:31;9.30;99.90
61201;DHT22;47065;52.898;6.992;2023-04-24T03:00:57;9.30;99.90
61201;DHT22;47065;52.898;6.992;2023-04-24T03:03:23;9.20;99.90
61201;DHT22;47065;52.898;6.992;2023-04-24T03:05:49;9.30;99.90
61201;DHT22;47065;52.898;6.992;2023-04-24T03:08:15;9.20;99.90
61201;DHT22;47065;52.898;6.992;2023-04-24T03:10:40;9.20;99.90
61201;DHT22;47065;52.898;6.992;2023-04-24T03:13:06;9.20;99.90
61201;DHT22;47065;52.898;6.992;2023-04-24T03:15:31;9.20;99.90
61201;DHT22;47065;52.898;6.992;2023-04-24T03:17:57;9.20;99.90
61201;DHT22;47065;52.898;6.992;2023-04-24T03:20:23;9.20;99.90
61201;DHT22;47065;52.898;6.992;2023-04-24T03:22:49;9.10;99.90
61201;DHT22;47065;52.898;6.992;2023-04-24T03:25:14;9.10;99.90
61201;DHT22;47065;52.898;6.992;2023-04-24T03:27:40;9.20;99.90
61201;DHT22;47065;52.898;6.992;2023-04-24T03:30:07;9.10;99.90
61201;DHT22;47065;52.898;6.992;2023-04-24T03:32:33;9.10;99.90
61201;DHT22;47065;52.898;6.992;2023-04-24T03:34:58;9.10;99.90
61201;DHT22;47065;52.898;6.992;2023-04-24T03:37:24;9.10;99.90
61201;DHT22;47065;52.898;6.992;2023-04-24T03:39:50;9.10;99.90
61201;DHT22;47065;52.898;6.992;2023-04-24T03:42:15;9.00;99.90
61201;DHT22;47065;52.898;6.992;2023-04-24T03:44:41;9.00;99.90
61201;DHT22;47065;52.898;6.992;2023-04-24T03:47:06;9.00;99.90
61201;DHT22;47065;52.898;6.992;2023-04-24T03:49:32;9.00;99.90
61201;DHT22;47065;52.898;6.992;2023-04-24T03:51:58;9.00;99.90
61201;DHT22;47065;52.898;6.992;2023-04-24T03:54:23;9.00;99.90
61201;DHT22;47065;52.898;6.992;2023-04-24T03:56:49;9.00;99.90
61201;DHT22;47065;52.898;6.992;2023-04-24T03:59:14;9.00;99.90
61201;DHT22;47065;52.898;6.992;2023-04-24T04:01:40;9.00;99.90
61201;DHT22;47065;52.898;6.992;2023-04-24T04:04:06;9.00;99.90
61201;DHT22;47065;52.898;6.992;2023-04-24T04:06:33;9.00;99.90
61201;DHT22;47065;52.898;6.992;2023-04-24T04:08:59;9.00;99.90
61201;DHT22;47065;52.898;6.992;2023-04-24T04:11:25;9.00;99.90
61201;DHT22;47065;52.898;6.992;2023-04-24T04:13:51;9.00;99.90
61201;DHT22;47065;52.898;6.992;2023-04-24T04:16:17;9.00;99.90
61201;DHT22;47065;52.898;6.992;2023-04-24T04:18:45;9.00;99.90
61201;DHT22;47065;52.898;6.992;2023-04-24T04:21:11;9.00;99.90
61201;DHT22;47065;52.898;6.992;2023-04-24T04:23:37;9.00;99.90
61201;DHT22;47065;52.898;6.992;2023-04-24T04:26:03;9.00;99.90
61201;DHT22;47065;52.898;6.992;2023-04-24T04:28:29;9.00;99.90
61201;DHT22;47065;52.898;6.992;2023-04-24T04:30:57;9.00;99.90
61201;DHT22;47065;52.898;6.992;2023-04-24T04:33:23;9.00;99.90
61201;DHT22;47065;52.898;6.992;2023-04-24T04:35:50;9.00;99.90
61201;DHT22;47065;52.898;6.992;2023-04-24T04:38:18;9.00;99.90
61201;DHT22;47065;52.898;6.992;2023-04-24T04:40:44;9.10;99.90
61201;DHT22;47065;52.898;6.992;2023-04-24T04:43:10;9.10;99.90
61201;DHT22;47065;52.898;6.992;2023-04-24T04:45:36;9.00;99.90
61201;DHT22;47065;52.898;6.992;2023-04-24T04:48:04;9.10;99.90
61201;DHT22;47065;52.898;6.992;2023-04-24T04:50:33;9.10;99.90
61201;DHT22;47065;52.898;6.992;2023-04-24T04:52:58;9.10;99.90
61201;DHT22;47065;52.898;6.992;2023-04-24T04:55:24;9.10;99.90
61201;DHT22;47065;52.898;6.992;2023-04-24T04:57:50;9.10;99.90
61201;DHT22;47065;52.898;6.992;2023-04-24T05:00:16;9.00;99.90
61201;DHT22;47065;52.898;6.992;2023-04-24T05:02:42;9.00;99.90
61201;DHT22;47065;52.898;6.992;2023-04-24T05:05:08;9.00;99.90
61201;DHT22;47065;52.898;6.992;2023-04-24T05:07:34;9.00;99.90
61201;DHT22;47065;52.898;6.992;2023-04-24T05:09:59;9.00;99.90
61201;DHT22;47065;52.898;6.992;2023-04-24T05:12:25;9.00;99.90
61201;DHT22;47065;52.898;6.992;2023-04-24T05:14:51;9.00;99.90
61201;DHT22;47065;52.898;6.992;2023-04-24T05:17:17;9.00;99.90
61201;DHT22;47065;52.898;6.992;2023-04-24T05:19:42;9.00;99.90
61201;DHT22;47065;52.898;6.992;2023-04-24T05:22:08;9.00;99.90
61201;DHT22;47065;52.898;6.992;2023-04-24T05:24:35;9.00;99.90
61201;DHT22;47065;52.898;6.992;2023-04-24T05:27:02;9.00;99.90
61201;DHT22;47065;52.898;6.992;2023-04-24T05:29:28;9.00;99.90
61201;DHT22;47065;52.898;6.992;2023-04-24T05:31:56;9.00;99.90
61201;DHT22;47065;52.898;6.992;2023-04-24T05:34:22;9.00;99.90
61201;DHT22;47065;52.898;6.992;2023-04-24T05:36:48;9.00;99.90
61201;DHT22;47065;52.898;6.992;2023-04-24T05:39:14;9.10;99.90
61201;DHT22;47065;52.898;6.992;2023-04-24T05:41:40;9.10;99.90
61201;DHT22;47065;52.898;6.992;2023-04-24T05:44:06;9.10;99.90
61201;DHT22;47065;52.898;6.992;2023-04-24T05:46:31;9.10;99.90
61201;DHT22;47065;52.898;6.992;2023-04-24T05:48:57;9.20;99.90
61201;DHT22;47065;52.898;6.992;2023-04-24T05:51:23;9.20;99.90
61201;DHT22;47065;52.898;6.992;2023-04-24T05:53:49;9.20;99.90
61201;DHT22;47065;52.898;6.992;2023-04-24T05:56:15;9.20;99.90
61201;DHT22;47065;52.898;6.992;2023-04-24T05:58:41;9.30;99.90
61201;DHT22;47065;52.898;6.992;2023-04-24T06:01:07;9.30;99.90
61201;DHT22;47065;52.898;6.992;2023-04-24T06:03:33;9.30;99.90
61201;DHT22;47065;52.898;6.992;2023-04-24T06:05:58;9.30;99.90
61201;DHT22;47065;52.898;6.992;2023-04-24T06:08:24;9.40;99.90
61201;DHT22;47065;52.898;6.992;2023-04-24T06:10:50;9.40;99.90
61201;DHT22;47065;52.898;6.992;2023-04-24T06:13:19;9.40;99.90
61201;DHT22;47065;52.898;6.992;2023-04-24T06:15:44;9.40;99.90
61201;DHT22;47065;52.898;6.992;2023-04-24T06:18:10;9.40;99.90
61201;DHT22;47065;52.898;6.992;2023-04-24T06:20:36;9.40;99.90
61201;DHT22;47065;52.898;6.992;2023-04-24T06:23:02;9.40;99.90
61201;DHT22;47065;52.898;6.992;2023-04-24T06:25:28;9.40;99.90
61201;DHT22;47065;52.898;6.992;2023-04-24T06:27:54;9.40;99.90
61201;DHT22;47065;52.898;6.992;2023-04-24T06:30:20;9.30;99.90
61201;DHT22;47065;52.898;6.992;2023-04-24T06:32:46;9.30;99.90
61201;DHT22;47065;52.898;6.992;2023-04-24T06:35:11;9.30;99.90
61201;DHT22;47065;52.898;6.992;2023-04-24T06:37:39;9.30;99.90
61201;DHT22;47065;52.898;6.992;2023-04-24T06:40:07;9.30;99.90
61201;DHT22;47065;52.898;6.992;2023-04-24T06:42:33;9.30;99.90
61201;DHT22;47065;52.898;6.992;2023-04-24T06:45:00;9.30;99.90
61201;DHT22;47065;52.898;6.992;2023-04-24T06:47:26;9.30;99.90
61201;DHT22;47065;52.898;6.992;2023-04-24T06:49:52;9.30;99.90
61201;DHT22;47065;52.898;6.992;2023-04-24T06:52:18;9.30;99.90
61201;DHT22;47065;52.898;6.992;2023-04-24T06:54:44;9.30;99.90
61201;DHT22;47065;52.898;6.992;2023-04-24T06:57:09;9.30;99.90
61201;DHT22;47065;52.898;6.992;2023-04-24T06:59:36;9.30;99.90
61201;DHT22;47065;52.898;6.992;2023-04-24T07:02:02;9.30;99.90
61201;DHT22;47065;52.898;6.992;2023-04-24T07:04:28;9.30;99.90
61201;DHT22;47065;52.898;6.992;2023-04-24T07:06:54;9.30;99.90
61201;DHT22;47065;52.898;6.992;2023-04-24T07:09:21;9.20;99.90
61201;DHT22;47065;52.898;6.992;2023-04-24T07:11:47;9.30;99.90
61201;DHT22;47065;52.898;6.992;2023-04-24T07:14:13;9.30;99.90
61201;DHT22;47065;52.898;6.992;2023-04-24T07:16:39;9.30;99.90
61201;DHT22;47065;52.898;6.992;2023-04-24T07:19:05;9.30;99.90
61201;DHT22;47065;52.898;6.992;2023-04-24T07:21:30;9.30;99.90
61201;DHT22;47065;52.898;6.992;2023-04-24T07:23:58;9.30;99.90
61201;DHT22;47065;52.898;6.992;2023-04-24T07:26:23;9.30;99.90
61201;DHT22;47065;52.898;6.992;2023-04-24T07:28:49;9.40;99.90
61201;DHT22;47065;52.898;6.992;2023-04-24T07:31:15;9.40;99.90
61201;DHT22;47065;52.898;6.992;2023-04-24T07:33:40;9.30;99.90
61201;DHT22;47065;52.898;6.992;2023-04-24T07:36:06;9.40;99.90
61201;DHT22;47065;52.898;6.992;2023-04-24T07:38:31;9.50;99.90
61201;DHT22;47065;52.898;6.992;2023-04-24T07:40:57;9.50;99.90
61201;DHT22;47065;52.898;6.992;2023-04-24T07:43:23;9.50;99.90
61201;DHT22;47065;52.898;6.992;2023-04-24T07:45:50;9.50;99.90
61201;DHT22;47065;52.898;6.992;2023-04-24T07:48:16;9.60;99.90
61201;DHT22;47065;52.898;6.992;2023-04-24T07:50:43;9.60;99.90
61201;DHT22;47065;52.898;6.992;2023-04-24T07:53:09;9.60;99.90
61201;DHT22;47065;52.898;6.992;2023-04-24T07:55:35;9.70;99.90
61201;DHT22;47065;52.898;6.992;2023-04-24T07:58:01;9.70;99.90
61201;DHT22;47065;52.898;6.992;2023-04-24T08:00:27;9.70;99.90
61201;DHT22;47065;52.898;6.992;2023-04-24T08:02:52;9.80;99.90
61201;DHT22;47065;52.898;6.992;2023-04-24T08:05:18;9.90;99.90
61201;DHT22;47065;52.898;6.992;2023-04-24T08:07:44;9.90;99.90
61201;DHT22;47065;52.898;6.992;2023-04-24T08:10:11;10.00;99.90
61201;DHT22;47065;52.898;6.992;2023-04-24T08:12:37;10.00;99.90
61201;DHT22;47065;52.898;6.992;2023-04-24T08:15:04;10.00;99.90
61201;DHT22;47065;52.898;6.992;2023-04-24T08:17:30;10.00;99.90
61201;DHT22;47065;52.898;6.992;2023-04-24T08:19:56;10.00;99.90
61201;DHT22;47065;52.898;6.992;2023-04-24T08:22:27;10.10;99.90
61201;DHT22;47065;52.898;6.992;2023-04-24T08:24:53;10.00;99.90
61201;DHT22;47065;52.898;6.992;2023-04-24T08:27:19;10.00;99.90
61201;DHT22;47065;52.898;6.992;2023-04-24T08:29:44;9.90;99.90
61201;DHT22;47065;52.898;6.992;2023-04-24T08:32:10;9.90;99.90
61201;DHT22;47065;52.898;6.992;2023-04-24T08:34:35;9.80;99.90
61201;DHT22;47065;52.898;6.992;2023-04-24T08:37:02;9.80;99.90
61201;DHT22;47065;52.898;6.992;2023-04-24T08:39:28;9.80;99.90
61201;DHT22;47065;52.898;6.992;2023-04-24T08:41:56;9.70;99.90
61201;DHT22;47065;52.898;6.992;2023-04-24T08:44:21;9.70;99.90
61201;DHT22;47065;52.898;6.992;2023-04-24T08:46:48;9.70;99.90
61201;DHT22;47065;52.898;6.992;2023-04-24T08:49:14;9.70;99.90
61201;DHT22;47065;52.898;6.992;2023-04-24T08:51:44;9.70;99.90
61201;DHT22;47065;52.898;6.992;2023-04-24T08:54:11;9.70;99.90
61201;DHT22;47065;52.898;6.992;2023-04-24T08:56:38;9.70;99.90
61201;DHT22;47065;52.898;6.992;2023-04-24T08:59:06;9.70;99.90
61201;DHT22;47065;52.898;6.992;2023-04-24T09:01:32;9.70;99.90
61201;DHT22;47065;52.898;6.992;2023-04-24T09:04:03;9.70;99.90
61201;DHT22;47065;52.898;6.992;2023-04-24T09:06:30;9.70;99.90
61201;DHT22;47065;52.898;6.992;2023-04-24T09:09:00;9.60;99.90
61201;DHT22;47065;52.898;6.992;2023-04-24T09:11:26;9.60;99.90
61201;DHT22;47065;52.898;6.992;2023-04-24T09:13:53;9.50;99.90
61201;DHT22;47065;52.898;6.992;2023-04-24T09:16:20;9.50;99.90
61201;DHT22;47065;52.898;6.992;2023-04-24T09:18:46;9.50;99.90
61201;DHT22;47065;52.898;6.992;2023-04-24T09:21:12;9.40;99.90
61201;DHT22;47065;52.898;6.992;2023-04-24T09:23:38;9.50;99.90
61201;DHT22;47065;52.898;6.992;2023-04-24T09:26:04;9.40;99.90
61201;DHT22;47065;52.898;6.992;2023-04-24T09:28:31;9.40;99.90
61201;DHT22;47065;52.898;6.992;2023-04-24T09:31:11;9.30;99.90
61201;DHT22;47065;52.898;6.992;2023-04-24T09:33:38;9.20;99.90
61201;DHT22;47065;52.898;6.992;2023-04-24T09:36:04;9.20;99.90
61201;DHT22;47065;52.898;6.992;2023-04-24T09:38:32;9.20;99.90
61201;DHT22;47065;52.898;6.992;2023-04-24T09:41:06;9.20;99.90
61201;DHT22;47065;52.898;6.992;2023-04-24T09:43:32;9.10;99.90
61201;DHT22;47065;52.898;6.992;2023-04-24T09:46:00;9.00;99.90
61201;DHT22;47065;52.898;6.992;2023-04-24T09:48:33;9.00;99.90
61201;DHT22;47065;52.898;6.992;2023-04-24T09:51:01;9.00;99.90
61201;DHT22;47065;52.898;6.992;2023-04-24T09:53:27;8.90;99.90
61201;DHT22;47065;52.898;6.992;2023-04-24T09:55:53;8.90;99.90
61201;DHT22;47065;52.898;6.992;2023-04-24T09:58:25;8.90;99.90
61201;DHT22;47065;52.898;6.992;2023-04-24T10:00:54;8.90;99.90
61201;DHT22;47065;52.898;6.992;2023-04-24T10:03:20;8.80;99.90
61201;DHT22;47065;52.898;6.992;2023-04-24T10:05:47;8.80;99.90
61201;DHT22;47065;52.898;6.992;2023-04-24T10:08:13;8.80;99.90
61201;DHT22;47065;52.898;6.992;2023-04-24T10:10:41;8.70;99.90
61201;DHT22;47065;52.898;6.992;2023-04-24T10:13:08;8.80;99.90
61201;DHT22;47065;52.898;6.992;2023-04-24T10:15:34;8.70;99.90
61201;DHT22;47065;52.898;6.992;2023-04-24T10:18:00;8.70;99.90
61201;DHT22;47065;52.898;6.992;2023-04-24T10:20:28;8.70;99.90
61201;DHT22;47065;52.898;6.992;2023-04-24T10:22:58;8.70;99.90
61201;DHT22;47065;52.898;6.992;2023-04-24T10:25:26;8.70;99.90
61201;DHT22;47065;52.898;6.992;2023-04-24T10:27:53;8.70;99.90
61201;DHT22;47065;52.898;6.992;2023-04-24T10:30:22;8.70;99.90
61201;DHT22;47065;52.898;6.992;2023-04-24T10:32:48;8.70;99.90
61201;DHT22;47065;52.898;6.992;2023-04-24T10:35:15;8.70;99.90
61201;DHT22;47065;52.898;6.992;2023-04-24T10:37:50;8.70;99.90
61201;DHT22;47065;52.898;6.992;2023-04-24T10:40:18;8.70;99.90
61201;DHT22;47065;52.898;6.992;2023-04-24T10:42:48;8.70;99.90
61201;DHT22;47065;52.898;6.992;2023-04-24T10:45:18;8.70;99.90
61201;DHT22;47065;52.898;6.992;2023-04-24T10:47:59;8.80;99.90
61201;DHT22;47065;52.898;6.992;2023-04-24T10:50:43;8.70;99.90
61201;DHT22;47065;52.898;6.992;2023-04-24T10:53:23;8.70;99.90
61201;DHT22;47065;52.898;6.992;2023-04-24T10:55:51;8.70;99.90
61201;DHT22;47065;52.898;6.992;2023-04-24T10:58:22;8.70;99.90
61201;DHT22;47065;52.898;6.992;2023-04-24T11:00:59;8.80;99.90
61201;DHT22;47065;52.898;6.992;2023-04-24T11:03:27;8.80;99.90
61201;DHT22;47065;52.898;6.992;2023-04-24T11:06:02;8.80;99.90
61201;DHT22;47065;52.898;6.992;2023-04-24T11:11:03;8.90;99.90
61201;DHT22;47065;52.898;6.992;2023-04-24T11:21:55;8.90;99.90
61201;DHT22;47065;52.898;6.992;2023-04-24T11:26:54;8.90;99.90
61201;DHT22;47065;52.898;6.992;2023-04-24T11:29:20;8.90;99.90
61201;DHT22;47065;52.898;6.992;2023-04-24T11:31:47;8.90;99.90
61201;DHT22;47065;52.898;6.992;2023-04-24T11:34:17;8.90;99.90
61201;DHT22;47065;52.898;6.992;2023-04-24T11:36:44;8.90;99.90
61201;DHT22;47065;52.898;6.992;2023-04-24T11:39:11;8.90;99.90
61201;DHT22;47065;52.898;6.992;2023-04-24T11:41:37;8.90;99.90
61201;DHT22;47065;52.898;6.992;2023-04-24T11:44:05;9.00;99.90
61201;DHT22;47065;52.898;6.992;2023-04-24T11:46:31;9.10;99.90
61201;DHT22;47065;52.898;6.992;2023-04-24T11:48:58;9.20;99.90
61201;DHT22;47065;52.898;6.992;2023-04-24T11:51:25;9.20;99.90
61201;DHT22;47065;52.898;6.992;2023-04-24T11:53:55;9.30;99.90
61201;DHT22;47065;52.898;6.992;2023-04-24T11:56:24;9.30;99.90
61201;DHT22;47065;52.898;6.992;2023-04-24T11:58:52;9.30;99.90
61201;DHT22;47065;52.898;6.992;2023-04-24T12:01:18;9.30;99.90
61201;DHT22;47065;52.898;6.992;2023-04-24T12:03:48;9.20;99.90
61201;DHT22;47065;52.898;6.992;2023-04-24T12:06:14;9.20;99.90
61201;DHT22;47065;52.898;6.992;2023-04-24T12:08:40;9.10;99.90
61201;DHT22;47065;52.898;6.992;2023-04-24T12:11:06;9.10;99.90
61201;DHT22;47065;52.898;6.992;2023-04-24T12:13:33;9.10;99.90
61201;DHT22;47065;52.898;6.992;2023-04-24T12:16:01;9.20;99.90
61201;DHT22;47065;52.898;6.992;2023-04-24T12:18:27;9.20;99.90
61201;DHT22;47065;52.898;6.992;2023-04-24T12:20:52;9.30;99.90
61201;DHT22;47065;52.898;6.992;2023-04-24T12:23:34;9.30;99.90
61201;DHT22;47065;52.898;6.992;2023-04-24T12:26:03;9.30;99.90
61201;DHT22;47065;52.898;6.992;2023-04-24T12:28:35;9.40;99.90
61201;DHT22;47065;52.898;6.992;2023-04-24T12:31:01;9.40;99.90
61201;DHT22;47065;52.898;6.992;2023-04-24T12:33:27;9.40;99.90
61201;DHT22;47065;52.898;6.992;2023-04-24T12:35:53;9.30;99.90
61201;DHT22;47065;52.898;6.992;2023-04-24T12:38:23;9.30;99.90
61201;DHT22;47065;52.898;6.992;2023-04-24T12:41:08;9.10;99.90
61201;DHT22;47065;52.898;6.992;2023-04-24T12:43:34;9.10;99.90
61201;DHT22;47065;52.898;6.992;2023-04-24T12:46:00;9.00;99.90
61201;DHT22;47065;52.898;6.992;2023-04-24T12:48:29;9.00;99.90
61201;DHT22;47065;52.898;6.992;2023-04-24T12:50:56;9.00;99.90
61201;DHT22;47065;52.898;6.992;2023-04-24T12:53:22;9.00;99.90
61201;DHT22;47065;52.898;6.992;2023-04-24T12:55:47;9.00;99.90
61201;DHT22;47065;52.898;6.992;2023-04-24T12:58:22;9.00;99.90
61201;DHT22;47065;52.898;6.992;2023-04-24T13:00:47;9.10;99.90
61201;DHT22;47065;52.898;6.992;2023-04-24T13:03:13;9.20;99.90
61201;DHT22;47065;52.898;6.992;2023-04-24T13:05:40;9.20;99.90
61201;DHT22;47065;52.898;6.992;2023-04-24T13:08:06;9.30;99.90
61201;DHT22;47065;52.898;6.992;2023-04-24T13:10:31;9.30;99.90
61201;DHT22;47065;52.898;6.992;2023-04-24T13:12:57;9.40;99.90
61201;DHT22;47065;52.898;6.992;2023-04-24T13:15:23;9.40;99.90
61201;DHT22;47065;52.898;6.992;2023-04-24T13:17:49;9.40;99.90
61201;DHT22;47065;52.898;6.992;2023-04-24T13:20:14;9.50;99.90
61201;DHT22;47065;52.898;6.992;2023-04-24T13:22:40;9.40;99.90
61201;DHT22;47065;52.898;6.992;2023-04-24T13:25:06;9.40;99.90
61201;DHT22;47065;52.898;6.992;2023-04-24T13:27:32;9.40;99.90
61201;DHT22;47065;52.898;6.992;2023-04-24T13:29:58;9.40;99.90
61201;DHT22;47065;52.898;6.992;2023-04-24T13:32:24;9.30;99.90
61201;DHT22;47065;52.898;6.992;2023-04-24T13:34:50;9.30;99.90
61201;DHT22;47065;52.898;6.992;2023-04-24T13:37:16;9.30;99.90
61201;DHT22;47065;52.898;6.992;2023-04-24T13:39:41;9.20;99.90
61201;DHT22;47065;52.898;6.992;2023-04-24T13:42:07;9.30;99.90
61201;DHT22;47065;52.898;6.992;2023-04-24T13:44:32;9.30;99.90
61201;DHT22;47065;52.898;6.992;2023-04-24T13:46:58;9.30;99.90
61201;DHT22;47065;52.898;6.992;2023-04-24T13:49:25;9.30;99.90
61201;DHT22;47065;52.898;6.992;2023-04-24T13:51:51;9.20;99.90
61201;DHT22;47065;52.898;6.992;2023-04-24T13:54:17;9.20;99.90
61201;DHT22;47065;52.898;6.992;2023-04-24T13:56:43;9.20;99.90
61201;DHT22;47065;52.898;6.992;2023-04-24T13:59:08;9.10;99.90
61201;DHT22;47065;52.898;6.992;2023-04-24T14:01:34;9.20;99.90
61201;DHT22;47065;52.898;6.992;2023-04-24T14:04:00;9.30;99.90
61201;DHT22;47065;52.898;6.992;2023-04-24T14:06:26;9.20;99.90
61201;DHT22;47065;52.898;6.992;2023-04-24T14:08:51;9.20;99.90
61201;DHT22;47065;52.898;6.992;2023-04-24T14:11:18;9.20;99.90
61201;DHT22;47065;52.898;6.992;2023-04-24T14:13:44;9.20;99.90
61201;DHT22;47065;52.898;6.992;2023-04-24T14:16:10;9.20;99.90
61201;DHT22;47065;52.898;6.992;2023-04-24T14:18:36;9.20;99.90
61201;DHT22;47065;52.898;6.992;2023-04-24T14:21:02;9.10;99.90
61201;DHT22;47065;52.898;6.992;2023-04-24T14:23:28;9.10;99.90
61201;DHT22;47065;52.898;6.992;2023-04-24T14:25:54;9.10;99.90
61201;DHT22;47065;52.898;6.992;2023-04-24T14:28:20;9.10;99.90
61201;DHT22;47065;52.898;6.992;2023-04-24T14:30:46;9.10;99.90
61201;DHT22;47065;52.898;6.992;2023-04-24T14:33:12;9.10;99.90
61201;DHT22;47065;52.898;6.992;2023-04-24T14:35:39;9.10;99.90
61201;DHT22;47065;52.898;6.992;2023-04-24T14:38:05;9.10;99.90
61201;DHT22;47065;52.898;6.992;2023-04-24T14:40:31;9.20;99.90
61201;DHT22;47065;52.898;6.992;2023-04-24T14:42:58;9.20;99.90
61201;DHT22;47065;52.898;6.992;2023-04-24T14:45:24;9.20;99.90
61201;DHT22;47065;52.898;6.992;2023-04-24T14:47:50;9.30;99.90
61201;DHT22;47065;52.898;6.992;2023-04-24T14:50:16;9.20;99.90
61201;DHT22;47065;52.898;6.992;2023-04-24T14:52:42;9.20;99.90
61201;DHT22;47065;52.898;6.992;2023-04-24T14:55:08;9.20;99.90
61201;DHT22;47065;52.898;6.992;2023-04-24T14:57:34;9.20;99.90
61201;DHT22;47065;52.898;6.992;2023-04-24T15:00:00;9.20;99.90
61201;DHT22;47065;52.898;6.992;2023-04-24T15:02:25;9.10;99.90
61201;DHT22;47065;52.898;6.992;2023-04-24T15:04:51;9.10;99.90
61201;DHT22;47065;52.898;6.992;2023-04-24T15:07:16;9.10;99.90
61201;DHT22;47065;52.898;6.992;2023-04-24T15:09:42;9.10;99.90
61201;DHT22;47065;52.898;6.992;2023-04-24T15:12:08;9.10;99.90
61201;DHT22;47065;52.898;6.992;2023-04-24T15:14:35;9.10;99.90
61201;DHT22;47065;52.898;6.992;2023-04-24T15:17:00;9.10;99.90
61201;DHT22;47065;52.898;6.992;2023-04-24T15:19:26;9.10;99.90
61201;DHT22;47065;52.898;6.992;2023-04-24T15:21:52;9.10;99.90
61201;DHT22;47065;52.898;6.992;2023-04-24T15:24:17;9.10;99.90
61201;DHT22;47065;52.898;6.992;2023-04-24T15:26:43;9.10;99.90
61201;DHT22;47065;52.898;6.992;2023-04-24T15:29:08;9.10;99.90
61201;DHT22;47065;52.898;6.992;2023-04-24T15:31:34;9.10;99.90
61201;DHT22;47065;52.898;6.992;2023-04-24T15:34:00;9.20;99.90
61201;DHT22;47065;52.898;6.992;2023-04-24T15:36:26;9.20;99.90
61201;DHT22;47065;52.898;6.992;2023-04-24T15:38:52;9.30;99.90
61201;DHT22;47065;52.898;6.992;2023-04-24T15:41:18;9.30;99.90
61201;DHT22;47065;52.898;6.992;2023-04-24T15:43:44;9.30;99.90
61201;DHT22;47065;52.898;6.992;2023-04-24T15:46:09;9.30;99.90
61201;DHT22;47065;52.898;6.992;2023-04-24T15:48:35;9.30;99.90
61201;DHT22;47065;52.898;6.992;2023-04-24T15:51:01;9.30;99.90
61201;DHT22;47065;52.898;6.992;2023-04-24T15:53:26;9.30;99.90